sensor_id;sensor_type;location;lat;lon;timestamp;P1;durP1;ratioP1;P2;durP2;ratioP2
14015;SDS011;7083;48.854;9.158;2023-12-28T00:00:53;2.80;;;2.60;;
14015;SDS011;7083;48.854;9.158;2023-12-28T00:03:20;2.37;;;2.27;;
14015;SDS011;7083;48.854;9.158;2023-12-28T00:05:48;2.40;;;2.30;;
14015;SDS011;7083;48.854;9.158;2023-12-28T00:08:15;2.90;;;2.70;;
14015;SDS011;7083;48.854;9.158;2023-12-28T00:10:42;2.87;;;2.67;;
14015;SDS011;7083;48.854;9.158;2023-12-28T00:13:08;2.00;;;1.90;;
14015;SDS011;7083;48.854;9.158;2023-12-28T00:15:35;2.90;;;2.60;;
14015;SDS011;7083;48.854;9.158;2023-12-28T00:18:02;2.50;;;2.33;;
14015;SDS011;7083;48.854;9.158;2023-12-28T00:20:29;2.20;;;2.00;;
14015;SDS011;7083;48.854;9.158;2023-12-28T00:22:57;2.17;;;2.07;;
14015;SDS011;7083;48.854;9.158;2023-12-28T00:25:24;2.10;;;2.00;;
14015;SDS011;7083;48.854;9.158;2023-12-28T00:27:50;2.03;;;1.93;;
14015;SDS011;7083;48.854;9.158;2023-12-28T00:30:17;2.30;;;2.10;;
14015;SDS011;7083;48.854;9.158;2023-12-28T00:32:44;2.17;;;2.07;;
14015;SDS011;7083;48.854;9.158;2023-12-28T00:35:11;2.20;;;2.10;;
14015;SDS011;7083;48.854;9.158;2023-12-28T00:37:38;2.47;;;2.27;;
14015;SDS011;7083;48.854;9.158;2023-12-28T00:40:07;2.20;;;2.00;;
14015;SDS011;7083;48.854;9.158;2023-12-28T00:42:34;2.00;;;1.90;;
14015;SDS011;7083;48.854;9.158;2023-12-28T00:45:00;2.40;;;2.30;;
14015;SDS011;7083;48.854;9.158;2023-12-28T00:47:27;2.33;;;2.23;;
14015;SDS011;7083;48.854;9.158;2023-12-28T00:49:54;2.23;;;2.10;;
14015;SDS011;7083;48.854;9.158;2023-12-28T00:52:20;2.40;;;2.30;;
14015;SDS011;7083;48.854;9.158;2023-12-28T00:54:47;3.47;;;2.77;;
14015;SDS011;7083;48.854;9.158;2023-12-28T00:57:15;2.40;;;2.20;;
14015;SDS011;7083;48.854;9.158;2023-12-28T00:59:42;2.90;;;2.70;;
14015;SDS011;7083;48.854;9.158;2023-12-28T01:02:08;2.23;;;2.10;;
14015;SDS011;7083;48.854;9.158;2023-12-28T01:04:35;2.50;;;2.40;;
14015;SDS011;7083;48.854;9.158;2023-12-28T01:07:02;2.50;;;2.30;;
14015;SDS011;7083;48.854;9.158;2023-12-28T01:09:30;2.60;;;2.40;;
14015;SDS011;7083;48.854;9.158;2023-12-28T01:11:58;2.03;;;1.93;;
14015;SDS011;7083;48.854;9.158;2023-12-28T01:14:26;3.03;;;2.30;;
14015;SDS011;7083;48.854;9.158;2023-12-28T01:16:53;2.23;;;2.13;;
14015;SDS011;7083;48.854;9.158;2023-12-28T01:19:19;2.23;;;2.13;;
14015;SDS011;7083;48.854;9.158;2023-12-28T01:21:46;2.80;;;2.60;;
14015;SDS011;7083;48.854;9.158;2023-12-28T01:24:13;2.33;;;2.23;;
14015;SDS011;7083;48.854;9.158;2023-12-28T01:26:39;2.40;;;2.30;;
14015;SDS011;7083;48.854;9.158;2023-12-28T01:29:06;3.60;;;2.27;;
14015;SDS011;7083;48.854;9.158;2023-12-28T01:31:35;2.77;;;2.57;;
14015;SDS011;7083;48.854;9.158;2023-12-28T01:34:03;2.40;;;2.30;;
14015;SDS011;7083;48.854;9.158;2023-12-28T01:36:30;2.47;;;2.27;;
14015;SDS011;7083;48.854;9.158;2023-12-28T01:38:57;2.40;;;2.20;;
14015;SDS011;7083;48.854;9.158;2023-12-28T01:41:23;2.03;;;1.93;;
14015;SDS011;7083;48.854;9.158;2023-12-28T01:43:50;2.43;;;2.27;;
14015;SDS011;7083;48.854;9.158;2023-12-28T01:46:17;2.67;;;2.47;;
14015;SDS011;7083;48.854;9.158;2023-12-28T01:48:48;2.60;;;2.47;;
14015;SDS011;7083;48.854;9.158;2023-12-28T01:51:16;2.33;;;2.23;;
14015;SDS011;7083;48.854;9.158;2023-12-28T01:53:43;2.80;;;2.70;;
14015;SDS011;7083;48.854;9.158;2023-12-28T01:56:11;2.80;;;2.60;;
14015;SDS011;7083;48.854;9.158;2023-12-28T01:58:38;2.90;;;2.70;;
14015;SDS011;7083;48.854;9.158;2023-12-28T02:01:07;2.20;;;2.10;;
14015;SDS011;7083;48.854;9.158;2023-12-28T02:03:35;2.97;;;2.77;;
14015;SDS011;7083;48.854;9.158;2023-12-28T02:06:04;2.97;;;2.67;;
14015;SDS011;7083;48.854;9.158;2023-12-28T02:08:32;2.80;;;2.60;;
14015;SDS011;7083;48.854;9.158;2023-12-28T02:10:59;2.50;;;2.40;;
14015;SDS011;7083;48.854;9.158;2023-12-28T02:13:26;2.67;;;2.43;;
14015;SDS011;7083;48.854;9.158;2023-12-28T02:15:54;2.13;;;2.13;;
14015;SDS011;7083;48.854;9.158;2023-12-28T02:18:29;2.43;;;2.17;;
14015;SDS011;7083;48.854;9.158;2023-12-28T02:21:00;2.40;;;2.30;;
14015;SDS011;7083;48.854;9.158;2023-12-28T02:23:32;2.27;;;2.17;;
14015;SDS011;7083;48.854;9.158;2023-12-28T02:26:00;1.90;;;1.80;;
14015;SDS011;7083;48.854;9.158;2023-12-28T02:28:27;2.47;;;2.27;;
14015;SDS011;7083;48.854;9.158;2023-12-28T02:30:54;3.37;;;2.63;;
14015;SDS011;7083;48.854;9.158;2023-12-28T02:33:22;2.87;;;2.40;;
14015;SDS011;7083;48.854;9.158;2023-12-28T02:35:55;2.30;;;2.20;;
14015;SDS011;7083;48.854;9.158;2023-12-28T02:38:25;2.20;;;2.10;;
14015;SDS011;7083;48.854;9.158;2023-12-28T02:40:54;2.30;;;2.20;;
14015;SDS011;7083;48.854;9.158;2023-12-28T02:43:22;2.53;;;2.43;;
14015;SDS011;7083;48.854;9.158;2023-12-28T02:45:49;2.60;;;2.40;;
14015;SDS011;7083;48.854;9.158;2023-12-28T02:48:15;2.80;;;2.70;;
14015;SDS011;7083;48.854;9.158;2023-12-28T02:50:42;2.60;;;2.40;;
14015;SDS011;7083;48.854;9.158;2023-12-28T02:53:09;2.63;;;2.50;;
14015;SDS011;7083;48.854;9.158;2023-12-28T02:55:35;2.77;;;2.57;;
14015;SDS011;7083;48.854;9.158;2023-12-28T02:58:02;2.63;;;2.43;;
14015;SDS011;7083;48.854;9.158;2023-12-28T03:00:31;1.97;;;1.90;;
14015;SDS011;7083;48.854;9.158;2023-12-28T03:02:58;2.00;;;1.90;;
14015;SDS011;7083;48.854;9.158;2023-12-28T03:05:24;2.17;;;2.07;;
14015;SDS011;7083;48.854;9.158;2023-12-28T03:07:51;2.20;;;2.10;;
14015;SDS011;7083;48.854;9.158;2023-12-28T03:10:20;2.57;;;2.27;;
14015;SDS011;7083;48.854;9.158;2023-12-28T03:12:47;2.03;;;1.93;;
14015;SDS011;7083;48.854;9.158;2023-12-28T03:15:14;1.63;;;1.63;;
14015;SDS011;7083;48.854;9.158;2023-12-28T03:17:42;2.27;;;2.17;;
14015;SDS011;7083;48.854;9.158;2023-12-28T03:20:09;2.20;;;2.07;;
14015;SDS011;7083;48.854;9.158;2023-12-28T03:22:36;2.03;;;1.93;;
14015;SDS011;7083;48.854;9.158;2023-12-28T03:25:03;2.20;;;2.10;;
14015;SDS011;7083;48.854;9.158;2023-12-28T03:27:30;1.87;;;1.77;;
14015;SDS011;7083;48.854;9.158;2023-12-28T03:29:57;2.20;;;2.00;;
14015;SDS011;7083;48.854;9.158;2023-12-28T03:32:24;2.03;;;1.93;;
14015;SDS011;7083;48.854;9.158;2023-12-28T03:34:52;2.23;;;2.13;;
14015;SDS011;7083;48.854;9.158;2023-12-28T03:37:18;2.10;;;2.00;;
14015;SDS011;7083;48.854;9.158;2023-12-28T03:39:45;2.43;;;2.23;;
14015;SDS011;7083;48.854;9.158;2023-12-28T03:42:12;2.20;;;2.10;;
14015;SDS011;7083;48.854;9.158;2023-12-28T03:44:39;2.20;;;2.10;;
14015;SDS011;7083;48.854;9.158;2023-12-28T03:47:06;2.00;;;1.90;;
14015;SDS011;7083;48.854;9.158;2023-12-28T03:49:33;2.13;;;2.03;;
14015;SDS011;7083;48.854;9.158;2023-12-28T03:52:01;2.23;;;2.13;;
14015;SDS011;7083;48.854;9.158;2023-12-28T03:54:28;2.27;;;2.17;;
14015;SDS011;7083;48.854;9.158;2023-12-28T03:56:54;2.00;;;1.90;;
14015;SDS011;7083;48.854;9.158;2023-12-28T03:59:22;2.00;;;1.90;;
14015;SDS011;7083;48.854;9.158;2023-12-28T04:01:49;2.30;;;2.03;;
14015;SDS011;7083;48.854;9.158;2023-12-28T04:04:15;3.13;;;2.00;;
14015;SDS011;7083;48.854;9.158;2023-12-28T04:06:42;2.33;;;2.23;;
14015;SDS011;7083;48.854;9.158;2023-12-28T04:09:12;2.27;;;2.07;;
14015;SDS011;7083;48.854;9.158;2023-12-28T04:11:39;2.43;;;2.23;;
14015;SDS011;7083;48.854;9.158;2023-12-28T04:14:05;2.90;;;2.20;;
14015;SDS011;7083;48.854;9.158;2023-12-28T04:16:32;2.73;;;2.50;;
14015;SDS011;7083;48.854;9.158;2023-12-28T04:18:58;2.00;;;1.90;;
14015;SDS011;7083;48.854;9.158;2023-12-28T04:21:25;1.83;;;1.73;;
14015;SDS011;7083;48.854;9.158;2023-12-28T04:23:52;1.87;;;1.77;;
14015;SDS011;7083;48.854;9.158;2023-12-28T04:26:20;2.20;;;2.00;;
14015;SDS011;7083;48.854;9.158;2023-12-28T04:28:46;2.27;;;2.10;;
14015;SDS011;7083;48.854;9.158;2023-12-28T04:31:13;2.40;;;2.23;;
14015;SDS011;7083;48.854;9.158;2023-12-28T04:33:40;1.90;;;1.80;;
14015;SDS011;7083;48.854;9.158;2023-12-28T04:36:07;2.53;;;2.33;;
14015;SDS011;7083;48.854;9.158;2023-12-28T04:38:33;1.70;;;1.70;;
14015;SDS011;7083;48.854;9.158;2023-12-28T04:41:00;1.83;;;1.73;;
14015;SDS011;7083;48.854;9.158;2023-12-28T04:43:28;1.90;;;1.80;;
14015;SDS011;7083;48.854;9.158;2023-12-28T04:45:55;2.20;;;2.10;;
14015;SDS011;7083;48.854;9.158;2023-12-28T04:48:22;2.00;;;1.90;;
14015;SDS011;7083;48.854;9.158;2023-12-28T04:50:51;1.93;;;1.83;;
14015;SDS011;7083;48.854;9.158;2023-12-28T04:53:18;1.90;;;1.80;;
14015;SDS011;7083;48.854;9.158;2023-12-28T04:56:02;2.00;;;1.90;;
14015;SDS011;7083;48.854;9.158;2023-12-28T04:58:55;1.87;;;1.77;;
14015;SDS011;7083;48.854;9.158;2023-12-28T05:01:30;2.00;;;1.90;;
14015;SDS011;7083;48.854;9.158;2023-12-28T05:03:57;1.90;;;1.80;;
14015;SDS011;7083;48.854;9.158;2023-12-28T05:06:27;2.00;;;1.90;;
14015;SDS011;7083;48.854;9.158;2023-12-28T05:08:54;4.83;;;2.00;;
14015;SDS011;7083;48.854;9.158;2023-12-28T05:11:23;1.90;;;1.80;;
14015;SDS011;7083;48.854;9.158;2023-12-28T05:13:53;1.90;;;1.80;;
14015;SDS011;7083;48.854;9.158;2023-12-28T05:16:20;2.10;;;2.00;;
14015;SDS011;7083;48.854;9.158;2023-12-28T05:18:46;2.30;;;2.10;;
14015;SDS011;7083;48.854;9.158;2023-12-28T05:21:13;1.73;;;1.63;;
14015;SDS011;7083;48.854;9.158;2023-12-28T05:23:40;2.17;;;2.07;;
14015;SDS011;7083;48.854;9.158;2023-12-28T05:26:07;1.70;;;1.63;;
14015;SDS011;7083;48.854;9.158;2023-12-28T05:28:34;1.73;;;1.63;;
14015;SDS011;7083;48.854;9.158;2023-12-28T05:31:09;2.17;;;1.97;;
14015;SDS011;7083;48.854;9.158;2023-12-28T05:40:07;2.43;;;2.23;;
14015;SDS011;7083;48.854;9.158;2023-12-28T05:42:36;2.00;;;1.80;;
14015;SDS011;7083;48.854;9.158;2023-12-28T05:45:06;2.10;;;2.00;;
14015;SDS011;7083;48.854;9.158;2023-12-28T05:47:49;2.07;;;1.80;;
14015;SDS011;7083;48.854;9.158;2023-12-28T05:50:16;1.90;;;1.80;;
14015;SDS011;7083;48.854;9.158;2023-12-28T05:57:27;2.73;;;1.83;;
14015;SDS011;7083;48.854;9.158;2023-12-28T06:03:23;2.17;;;2.08;;
14015;SDS011;7083;48.854;9.158;2023-12-28T06:05:53;2.07;;;1.97;;
14015;SDS011;7083;48.854;9.158;2023-12-28T06:08:33;1.90;;;1.80;;
14015;SDS011;7083;48.854;9.158;2023-12-28T06:11:06;1.80;;;1.70;;
14015;SDS011;7083;48.854;9.158;2023-12-28T06:13:52;1.63;;;1.57;;
14015;SDS011;7083;48.854;9.158;2023-12-28T06:16:23;1.90;;;1.80;;
14015;SDS011;7083;48.854;9.158;2023-12-28T06:19:11;1.70;;;1.60;;
14015;SDS011;7083;48.854;9.158;2023-12-28T06:21:46;1.67;;;1.57;;
14015;SDS011;7083;48.854;9.158;2023-12-28T06:24:21;1.50;;;1.40;;
14015;SDS011;7083;48.854;9.158;2023-12-28T06:26:47;2.13;;;1.30;;
14015;SDS011;7083;48.854;9.158;2023-12-28T06:29:14;1.77;;;1.67;;
14015;SDS011;7083;48.854;9.158;2023-12-28T06:31:44;3.60;;;1.63;;
14015;SDS011;7083;48.854;9.158;2023-12-28T06:34:14;1.47;;;1.47;;
14015;SDS011;7083;48.854;9.158;2023-12-28T06:36:41;1.43;;;1.33;;
14015;SDS011;7083;48.854;9.158;2023-12-28T06:39:08;1.93;;;1.30;;
14015;SDS011;7083;48.854;9.158;2023-12-28T06:41:35;1.60;;;1.50;;
14015;SDS011;7083;48.854;9.158;2023-12-28T06:44:08;1.60;;;1.50;;
14015;SDS011;7083;48.854;9.158;2023-12-28T06:46:41;1.70;;;1.60;;
14015;SDS011;7083;48.854;9.158;2023-12-28T06:49:12;2.73;;;2.53;;
14015;SDS011;7083;48.854;9.158;2023-12-28T06:51:52;1.60;;;1.50;;
14015;SDS011;7083;48.854;9.158;2023-12-28T07:02:58;1.63;;;1.53;;
14015;SDS011;7083;48.854;9.158;2023-12-28T07:05:26;1.70;;;1.60;;
14015;SDS011;7083;48.854;9.158;2023-12-28T07:07:53;1.63;;;1.53;;
14015;SDS011;7083;48.854;9.158;2023-12-28T07:10:27;1.93;;;1.83;;
14015;SDS011;7083;48.854;9.158;2023-12-28T07:12:57;1.80;;;1.63;;
14015;SDS011;7083;48.854;9.158;2023-12-28T07:15:24;1.17;;;1.17;;
14015;SDS011;7083;48.854;9.158;2023-12-28T07:17:51;1.57;;;1.47;;
14015;SDS011;7083;48.854;9.158;2023-12-28T07:20:17;1.70;;;1.40;;
14015;SDS011;7083;48.854;9.158;2023-12-28T07:22:45;1.63;;;1.30;;
14015;SDS011;7083;48.854;9.158;2023-12-28T07:25:12;1.33;;;1.23;;
14015;SDS011;7083;48.854;9.158;2023-12-28T07:27:39;2.03;;;1.60;;
14015;SDS011;7083;48.854;9.158;2023-12-28T07:30:06;1.67;;;1.57;;
14015;SDS011;7083;48.854;9.158;2023-12-28T07:32:33;1.57;;;1.47;;
14015;SDS011;7083;48.854;9.158;2023-12-28T07:35:00;1.47;;;1.30;;
14015;SDS011;7083;48.854;9.158;2023-12-28T07:37:27;1.40;;;1.30;;
14015;SDS011;7083;48.854;9.158;2023-12-28T07:39:55;1.60;;;1.30;;
14015;SDS011;7083;48.854;9.158;2023-12-28T07:42:22;4.73;;;1.90;;
14015;SDS011;7083;48.854;9.158;2023-12-28T07:44:49;1.63;;;1.53;;
14015;SDS011;7083;48.854;9.158;2023-12-28T07:47:16;1.40;;;1.40;;
14015;SDS011;7083;48.854;9.158;2023-12-28T07:49:42;1.37;;;1.27;;
14015;SDS011;7083;48.854;9.158;2023-12-28T07:52:09;1.47;;;1.37;;
14015;SDS011;7083;48.854;9.158;2023-12-28T07:54:36;1.97;;;1.87;;
14015;SDS011;7083;48.854;9.158;2023-12-28T07:57:04;3.77;;;2.30;;
14015;SDS011;7083;48.854;9.158;2023-12-28T07:59:31;2.87;;;2.60;;
14015;SDS011;7083;48.854;9.158;2023-12-28T08:01:57;2.20;;;2.10;;
14015;SDS011;7083;48.854;9.158;2023-12-28T08:04:24;3.73;;;2.27;;
14015;SDS011;7083;48.854;9.158;2023-12-28T08:06:51;2.83;;;2.63;;
14015;SDS011;7083;48.854;9.158;2023-12-28T08:09:17;4.77;;;2.77;;
14015;SDS011;7083;48.854;9.158;2023-12-28T08:11:44;2.87;;;2.30;;
14015;SDS011;7083;48.854;9.158;2023-12-28T08:14:12;2.13;;;2.03;;
14015;SDS011;7083;48.854;9.158;2023-12-28T08:16:39;2.50;;;2.40;;
14015;SDS011;7083;48.854;9.158;2023-12-28T08:19:06;4.17;;;2.33;;
14015;SDS011;7083;48.854;9.158;2023-12-28T08:21:33;5.10;;;2.60;;
14015;SDS011;7083;48.854;9.158;2023-12-28T08:23:59;2.43;;;2.27;;
14015;SDS011;7083;48.854;9.158;2023-12-28T08:26:26;3.07;;;2.33;;
14015;SDS011;7083;48.854;9.158;2023-12-28T08:28:53;3.03;;;2.20;;
14015;SDS011;7083;48.854;9.158;2023-12-28T08:31:21;2.63;;;2.43;;
14015;SDS011;7083;48.854;9.158;2023-12-28T08:33:47;2.87;;;2.60;;
14015;SDS011;7083;48.854;9.158;2023-12-28T08:36:14;4.30;;;2.30;;
14015;SDS011;7083;48.854;9.158;2023-12-28T08:38:42;2.73;;;2.53;;
14015;SDS011;7083;48.854;9.158;2023-12-28T08:41:17;2.67;;;2.47;;
14015;SDS011;7083;48.854;9.158;2023-12-28T08:43:44;3.30;;;3.07;;
14015;SDS011;7083;48.854;9.158;2023-12-28T08:46:11;3.87;;;3.43;;
14015;SDS011;7083;48.854;9.158;2023-12-28T08:48:39;3.20;;;2.90;;
14015;SDS011;7083;48.854;9.158;2023-12-28T08:51:05;3.57;;;3.27;;
14015;SDS011;7083;48.854;9.158;2023-12-28T08:53:32;4.10;;;3.13;;
14015;SDS011;7083;48.854;9.158;2023-12-28T08:55:59;3.50;;;3.20;;
14015;SDS011;7083;48.854;9.158;2023-12-28T08:58:25;3.63;;;2.83;;
14015;SDS011;7083;48.854;9.158;2023-12-28T09:00:52;3.50;;;3.20;;
14015;SDS011;7083;48.854;9.158;2023-12-28T09:03:19;4.07;;;3.67;;
14015;SDS011;7083;48.854;9.158;2023-12-28T09:05:47;3.90;;;3.60;;
14015;SDS011;7083;48.854;9.158;2023-12-28T09:08:14;5.27;;;3.40;;
14015;SDS011;7083;48.854;9.158;2023-12-28T09:10:41;4.33;;;3.73;;
14015;SDS011;7083;48.854;9.158;2023-12-28T09:13:08;5.87;;;3.73;;
14015;SDS011;7083;48.854;9.158;2023-12-28T09:15:41;6.30;;;3.93;;
14015;SDS011;7083;48.854;9.158;2023-12-28T09:18:08;5.73;;;3.40;;
14015;SDS011;7083;48.854;9.158;2023-12-28T09:20:35;3.30;;;3.00;;
14015;SDS011;7083;48.854;9.158;2023-12-28T09:23:03;5.10;;;4.60;;
14015;SDS011;7083;48.854;9.158;2023-12-28T09:25:30;6.00;;;4.13;;
14015;SDS011;7083;48.854;9.158;2023-12-28T09:27:58;5.03;;;3.50;;
14015;SDS011;7083;48.854;9.158;2023-12-28T09:30:24;4.07;;;3.63;;
14015;SDS011;7083;48.854;9.158;2023-12-28T09:32:51;3.73;;;3.40;;
14015;SDS011;7083;48.854;9.158;2023-12-28T09:35:18;4.43;;;4.07;;
14015;SDS011;7083;48.854;9.158;2023-12-28T09:37:45;4.60;;;4.30;;
14015;SDS011;7083;48.854;9.158;2023-12-28T09:40:13;6.15;;;5.55;;
14015;SDS011;7083;48.854;9.158;2023-12-28T09:42:43;5.00;;;4.50;;
14015;SDS011;7083;48.854;9.158;2023-12-28T09:45:15;5.73;;;5.23;;
14015;SDS011;7083;48.854;9.158;2023-12-28T09:47:42;4.83;;;4.43;;
14015;SDS011;7083;48.854;9.158;2023-12-28T09:50:10;3.83;;;3.60;;
14015;SDS011;7083;48.854;9.158;2023-12-28T09:52:39;3.03;;;2.77;;
14015;SDS011;7083;48.854;9.158;2023-12-28T09:55:05;3.07;;;2.67;;
14015;SDS011;7083;48.854;9.158;2023-12-28T09:57:34;6.80;;;2.87;;
14015;SDS011;7083;48.854;9.158;2023-12-28T10:00:02;2.33;;;2.17;;
14015;SDS011;7083;48.854;9.158;2023-12-28T10:02:31;2.20;;;2.00;;
14015;SDS011;7083;48.854;9.158;2023-12-28T10:04:59;2.50;;;2.10;;
14015;SDS011;7083;48.854;9.158;2023-12-28T10:07:26;3.17;;;2.40;;
14015;SDS011;7083;48.854;9.158;2023-12-28T10:09:52;1.90;;;1.80;;
14015;SDS011;7083;48.854;9.158;2023-12-28T10:12:19;2.10;;;1.90;;
14015;SDS011;7083;48.854;9.158;2023-12-28T10:14:47;1.87;;;1.77;;
14015;SDS011;7083;48.854;9.158;2023-12-28T10:17:16;2.30;;;2.10;;
14015;SDS011;7083;48.854;9.158;2023-12-28T10:19:43;2.23;;;2.03;;
14015;SDS011;7083;48.854;9.158;2023-12-28T10:22:13;1.90;;;1.80;;
14015;SDS011;7083;48.854;9.158;2023-12-28T10:24:40;2.57;;;2.00;;
14015;SDS011;7083;48.854;9.158;2023-12-28T10:27:09;1.90;;;1.80;;
14015;SDS011;7083;48.854;9.158;2023-12-28T10:29:35;2.50;;;2.30;;
14015;SDS011;7083;48.854;9.158;2023-12-28T10:32:04;2.77;;;2.33;;
14015;SDS011;7083;48.854;9.158;2023-12-28T10:34:31;2.20;;;2.00;;
14015;SDS011;7083;48.854;9.158;2023-12-28T10:36:58;2.43;;;2.23;;
14015;SDS011;7083;48.854;9.158;2023-12-28T10:39:27;2.53;;;2.33;;
14015;SDS011;7083;48.854;9.158;2023-12-28T10:41:58;2.53;;;2.33;;
14015;SDS011;7083;48.854;9.158;2023-12-28T10:44:30;2.60;;;2.40;;
14015;SDS011;7083;48.854;9.158;2023-12-28T10:47:01;2.10;;;2.00;;
14015;SDS011;7083;48.854;9.158;2023-12-28T10:49:32;2.60;;;2.47;;
14015;SDS011;7083;48.854;9.158;2023-12-28T10:52:01;3.00;;;2.80;;
14015;SDS011;7083;48.854;9.158;2023-12-28T10:54:35;2.80;;;2.60;;
14015;SDS011;7083;48.854;9.158;2023-12-28T10:57:09;2.70;;;2.27;;
14015;SDS011;7083;48.854;9.158;2023-12-28T10:59:43;2.30;;;2.07;;
14015;SDS011;7083;48.854;9.158;2023-12-28T11:02:20;2.07;;;1.87;;
14015;SDS011;7083;48.854;9.158;2023-12-28T11:04:50;1.40;;;1.40;;
14015;SDS011;7083;48.854;9.158;2023-12-28T11:07:20;1.27;;;1.17;;
14015;SDS011;7083;48.854;9.158;2023-12-28T11:09:47;1.17;;;1.17;;
14015;SDS011;7083;48.854;9.158;2023-12-28T11:12:15;2.17;;;1.40;;
14015;SDS011;7083;48.854;9.158;2023-12-28T11:14:43;1.57;;;1.47;;
14015;SDS011;7083;48.854;9.158;2023-12-28T11:17:11;1.43;;;1.40;;
14015;SDS011;7083;48.854;9.158;2023-12-28T11:19:42;1.47;;;1.20;;
14015;SDS011;7083;48.854;9.158;2023-12-28T11:22:09;3.63;;;1.77;;
14015;SDS011;7083;48.854;9.158;2023-12-28T11:24:36;1.10;;;1.10;;
14015;SDS011;7083;48.854;9.158;2023-12-28T11:27:03;1.20;;;1.20;;
14015;SDS011;7083;48.854;9.158;2023-12-28T11:29:31;1.50;;;1.40;;
14015;SDS011;7083;48.854;9.158;2023-12-28T11:31:58;2.10;;;1.40;;
14015;SDS011;7083;48.854;9.158;2023-12-28T11:34:27;2.07;;;1.97;;
14015;SDS011;7083;48.854;9.158;2023-12-28T11:36:56;1.57;;;1.57;;
14015;SDS011;7083;48.854;9.158;2023-12-28T11:39:29;1.50;;;1.40;;
14015;SDS011;7083;48.854;9.158;2023-12-28T11:42:01;1.87;;;1.73;;
14015;SDS011;7083;48.854;9.158;2023-12-28T11:44:29;1.40;;;1.40;;
14015;SDS011;7083;48.854;9.158;2023-12-28T11:46:55;1.33;;;1.33;;
14015;SDS011;7083;48.854;9.158;2023-12-28T11:49:24;1.60;;;1.50;;
14015;SDS011;7083;48.854;9.158;2023-12-28T11:51:54;1.87;;;1.77;;
14015;SDS011;7083;48.854;9.158;2023-12-28T11:54:24;2.63;;;1.50;;
14015;SDS011;7083;48.854;9.158;2023-12-28T11:56:51;1.63;;;1.53;;
14015;SDS011;7083;48.854;9.158;2023-12-28T11:59:18;1.07;;;1.07;;
14015;SDS011;7083;48.854;9.158;2023-12-28T12:01:48;1.40;;;1.40;;
14015;SDS011;7083;48.854;9.158;2023-12-28T12:04:16;1.30;;;1.30;;
14015;SDS011;7083;48.854;9.158;2023-12-28T12:06:42;1.37;;;1.37;;
14015;SDS011;7083;48.854;9.158;2023-12-28T12:09:15;1.50;;;1.50;;
14015;SDS011;7083;48.854;9.158;2023-12-28T12:11:43;1.50;;;1.40;;
14015;SDS011;7083;48.854;9.158;2023-12-28T12:14:20;1.33;;;1.33;;
14015;SDS011;7083;48.854;9.158;2023-12-28T12:16:51;1.30;;;1.30;;
14015;SDS011;7083;48.854;9.158;2023-12-28T12:19:20;2.90;;;1.73;;
14015;SDS011;7083;48.854;9.158;2023-12-28T12:21:47;1.73;;;1.63;;
14015;SDS011;7083;48.854;9.158;2023-12-28T12:24:16;2.90;;;1.50;;
14015;SDS011;7083;48.854;9.158;2023-12-28T12:26:43;2.10;;;1.57;;
14015;SDS011;7083;48.854;9.158;2023-12-28T12:29:11;1.50;;;1.40;;
14015;SDS011;7083;48.854;9.158;2023-12-28T12:31:39;1.60;;;1.50;;
14015;SDS011;7083;48.854;9.158;2023-12-28T12:34:07;1.33;;;1.30;;
14015;SDS011;7083;48.854;9.158;2023-12-28T12:36:34;1.50;;;1.40;;
14015;SDS011;7083;48.854;9.158;2023-12-28T12:39:01;1.30;;;1.27;;
14015;SDS011;7083;48.854;9.158;2023-12-28T12:41:29;1.77;;;1.67;;
14015;SDS011;7083;48.854;9.158;2023-12-28T12:43:56;1.40;;;1.40;;
14015;SDS011;7083;48.854;9.158;2023-12-28T12:46:24;1.83;;;1.73;;
14015;SDS011;7083;48.854;9.158;2023-12-28T12:48:54;1.50;;;1.50;;
14015;SDS011;7083;48.854;9.158;2023-12-28T12:51:22;1.70;;;1.60;;
14015;SDS011;7083;48.854;9.158;2023-12-28T12:53:49;1.50;;;1.40;;
14015;SDS011;7083;48.854;9.158;2023-12-28T12:56:15;1.83;;;1.73;;
14015;SDS011;7083;48.854;9.158;2023-12-28T12:58:45;2.13;;;2.03;;
14015;SDS011;7083;48.854;9.158;2023-12-28T13:01:11;2.17;;;1.93;;
14015;SDS011;7083;48.854;9.158;2023-12-28T13:03:38;3.07;;;2.00;;
14015;SDS011;7083;48.854;9.158;2023-12-28T13:06:06;2.50;;;1.90;;
14015;SDS011;7083;48.854;9.158;2023-12-28T13:08:33;2.07;;;1.93;;
14015;SDS011;7083;48.854;9.158;2023-12-28T13:11:00;2.37;;;1.70;;
14015;SDS011;7083;48.854;9.158;2023-12-28T13:13:27;1.70;;;1.60;;
14015;SDS011;7083;48.854;9.158;2023-12-28T13:15:55;1.63;;;1.53;;
14015;SDS011;7083;48.854;9.158;2023-12-28T13:18:21;1.33;;;1.33;;
14015;SDS011;7083;48.854;9.158;2023-12-28T13:20:48;1.37;;;1.37;;
14015;SDS011;7083;48.854;9.158;2023-12-28T13:23:15;1.63;;;1.57;;
14015;SDS011;7083;48.854;9.158;2023-12-28T13:25:41;2.33;;;1.70;;
14015;SDS011;7083;48.854;9.158;2023-12-28T13:28:09;2.00;;;1.90;;
14015;SDS011;7083;48.854;9.158;2023-12-28T13:30:37;1.80;;;1.70;;
14015;SDS011;7083;48.854;9.158;2023-12-28T13:33:05;1.73;;;1.63;;
14015;SDS011;7083;48.854;9.158;2023-12-28T13:35:32;1.30;;;1.30;;
14015;SDS011;7083;48.854;9.158;2023-12-28T13:37:59;1.70;;;1.50;;
14015;SDS011;7083;48.854;9.158;2023-12-28T13:40:26;1.77;;;1.67;;
14015;SDS011;7083;48.854;9.158;2023-12-28T13:42:53;1.57;;;1.47;;
14015;SDS011;7083;48.854;9.158;2023-12-28T13:45:20;1.47;;;1.47;;
14015;SDS011;7083;48.854;9.158;2023-12-28T13:47:46;2.10;;;1.90;;
14015;SDS011;7083;48.854;9.158;2023-12-28T13:50:15;1.90;;;1.80;;
14015;SDS011;7083;48.854;9.158;2023-12-28T13:52:41;1.30;;;1.30;;
14015;SDS011;7083;48.854;9.158;2023-12-28T13:55:08;1.40;;;1.30;;
14015;SDS011;7083;48.854;9.158;2023-12-28T13:57:36;1.40;;;1.40;;
14015;SDS011;7083;48.854;9.158;2023-12-28T14:00:03;1.37;;;1.37;;
14015;SDS011;7083;48.854;9.158;2023-12-28T14:02:31;1.37;;;1.27;;
14015;SDS011;7083;48.854;9.158;2023-12-28T14:04:58;1.53;;;1.50;;
14015;SDS011;7083;48.854;9.158;2023-12-28T14:07:26;2.00;;;1.37;;
14015;SDS011;7083;48.854;9.158;2023-12-28T14:09:52;1.97;;;1.87;;
14015;SDS011;7083;48.854;9.158;2023-12-28T14:12:19;2.30;;;2.03;;
14015;SDS011;7083;48.854;9.158;2023-12-28T14:14:46;1.97;;;1.87;;
14015;SDS011;7083;48.854;9.158;2023-12-28T14:17:13;2.40;;;2.20;;
14015;SDS011;7083;48.854;9.158;2023-12-28T14:19:40;2.20;;;2.10;;
14015;SDS011;7083;48.854;9.158;2023-12-28T14:22:07;2.10;;;2.00;;
14015;SDS011;7083;48.854;9.158;2023-12-28T14:24:36;2.10;;;2.00;;
14015;SDS011;7083;48.854;9.158;2023-12-28T14:27:03;1.80;;;1.70;;
14015;SDS011;7083;48.854;9.158;2023-12-28T14:29:30;1.47;;;1.47;;
14015;SDS011;7083;48.854;9.158;2023-12-28T14:31:57;2.00;;;1.90;;
14015;SDS011;7083;48.854;9.158;2023-12-28T14:34:25;2.47;;;2.23;;
14015;SDS011;7083;48.854;9.158;2023-12-28T14:36:52;2.47;;;2.37;;
14015;SDS011;7083;48.854;9.158;2023-12-28T14:39:19;1.87;;;1.77;;
14015;SDS011;7083;48.854;9.158;2023-12-28T14:41:47;1.97;;;1.87;;
14015;SDS011;7083;48.854;9.158;2023-12-28T14:44:14;1.90;;;1.80;;
14015;SDS011;7083;48.854;9.158;2023-12-28T14:46:40;1.57;;;1.57;;
14015;SDS011;7083;48.854;9.158;2023-12-28T14:49:07;1.80;;;1.70;;
14015;SDS011;7083;48.854;9.158;2023-12-28T14:51:34;1.83;;;1.73;;
14015;SDS011;7083;48.854;9.158;2023-12-28T14:54:00;1.80;;;1.70;;
14015;SDS011;7083;48.854;9.158;2023-12-28T14:56:27;1.93;;;1.83;;
14015;SDS011;7083;48.854;9.158;2023-12-28T14:58:55;1.80;;;1.70;;
14015;SDS011;7083;48.854;9.158;2023-12-28T15:01:22;6.27;;;2.20;;
14015;SDS011;7083;48.854;9.158;2023-12-28T15:03:49;1.90;;;1.80;;
14015;SDS011;7083;48.854;9.158;2023-12-28T15:06:16;2.10;;;1.70;;
14015;SDS011;7083;48.854;9.158;2023-12-28T15:08:42;2.30;;;2.10;;
14015;SDS011;7083;48.854;9.158;2023-12-28T15:11:09;3.70;;;2.70;;
14015;SDS011;7083;48.854;9.158;2023-12-28T15:13:37;1.70;;;1.60;;
14015;SDS011;7083;48.854;9.158;2023-12-28T15:16:06;1.90;;;1.80;;
14015;SDS011;7083;48.854;9.158;2023-12-28T15:18:34;2.07;;;1.97;;
14015;SDS011;7083;48.854;9.158;2023-12-28T15:21:01;2.07;;;1.73;;
14015;SDS011;7083;48.854;9.158;2023-12-28T15:23:29;3.07;;;2.67;;
14015;SDS011;7083;48.854;9.158;2023-12-28T15:26:01;3.57;;;1.97;;
14015;SDS011;7083;48.854;9.158;2023-12-28T15:28:28;2.60;;;1.73;;